createdAt,value
2022-10-12T00:00:57.068Z,12.00
2022-10-12T00:03:24.219Z,12.00
2022-10-12T00:06:13.035Z,11.90
2022-10-12T00:08:41.178Z,11.90
2022-10-12T00:11:11.304Z,11.90
2022-10-12T00:13:37.948Z,11.90
2022-10-12T00:16:09.131Z,11.90
2022-10-12T00:18:36.440Z,11.90
2022-10-12T00:21:08.331Z,11.70
2022-10-12T00:23:37.223Z,11.70
2022-10-12T00:26:10.644Z,11.70
2022-10-12T00:28:38.057Z,11.60
2022-10-12T00:31:13.923Z,11.60
2022-10-12T00:33:41.565Z,11.60
2022-10-12T00:36:20.616Z,11.60
2022-10-12T00:38:51.702Z,11.60
2022-10-12T00:41:21.619Z,11.60
2022-10-12T00:43:51.863Z,11.60
2022-10-12T00:46:33.680Z,11.50
2022-10-12T00:49:16.853Z,11.50
2022-10-12T00:51:51.758Z,11.50
2022-10-12T00:54:24.075Z,11.40
2022-10-12T00:56:53.168Z,11.30
2022-10-12T00:59:28.066Z,11.20
2022-10-12T01:01:57.357Z,11.20
2022-10-12T01:04:27.087Z,11.20
2022-10-12T01:06:53.885Z,11.10
2022-10-12T01:09:21.599Z,11.20
2022-10-12T01:11:48.832Z,11.10
2022-10-12T01:14:16.494Z,11.10
2022-10-12T01:17:07.695Z,11.10
2022-10-12T01:20:08.321Z,11.10
2022-10-12T01:22:43.278Z,11.10
2022-10-12T01:25:29.848Z,11.10
2022-10-12T01:28:13.167Z,11.10
2022-10-12T01:30:47.149Z,11.10
2022-10-12T01:33:22.757Z,11.00
2022-10-12T01:35:57.815Z,11.10
2022-10-12T01:38:59.902Z,11.10
2022-10-12T01:41:34.220Z,11.10
2022-10-12T01:44:03.167Z,11.00
2022-10-12T01:46:29.836Z,11.00
2022-10-12T01:48:59.493Z,11.00
2022-10-12T01:52:03.404Z,11.00
2022-10-12T01:54:51.802Z,11.00
2022-10-12T01:57:31.291Z,11.00
2022-10-12T02:00:08.515Z,11.00
2022-10-12T02:02:47.813Z,10.90
2022-10-12T02:05:45.867Z,10.90
2022-10-12T02:08:24.405Z,10.90
2022-10-12T02:10:57.467Z,10.90
2022-10-12T02:13:30.046Z,10.90
2022-10-12T02:16:00.554Z,10.90
2022-10-12T02:18:28.849Z,10.90
2022-10-12T02:20:59.337Z,10.70
2022-10-12T02:23:30.131Z,10.70
2022-10-12T02:26:00.490Z,10.60
2022-10-12T02:28:28.756Z,10.70
2022-10-12T02:31:29.081Z,10.70
2022-10-12T02:34:23.241Z,10.80
2022-10-12T02:36:58.872Z,10.80
2022-10-12T02:39:33.651Z,10.90
2022-10-12T02:42:08.820Z,10.90
2022-10-12T02:44:39.079Z,10.90
2022-10-12T02:47:10.380Z,10.90
2022-10-12T02:49:38.981Z,10.90
2022-10-12T02:52:07.004Z,11.00
2022-10-12T02:54:38.375Z,11.00
2022-10-12T02:57:07.961Z,11.00
2022-10-12T02:59:34.731Z,11.00
2022-10-12T03:02:01.392Z,11.10
2022-10-12T03:04:28.089Z,11.10
2022-10-12T03:06:54.754Z,11.10
2022-10-12T03:09:21.673Z,11.10
2022-10-12T03:11:48.346Z,11.00
2022-10-12T03:14:17.838Z,11.00
2022-10-12T03:16:49.391Z,11.00
2022-10-12T03:19:16.048Z,11.00
2022-10-12T03:21:42.671Z,11.00
2022-10-12T03:24:09.609Z,11.00
2022-10-12T03:26:38.794Z,11.00
2022-10-12T03:29:05.457Z,11.00
2022-10-12T03:31:32.262Z,11.00
2022-10-12T03:34:01.105Z,11.00
2022-10-12T03:36:30.626Z,11.00
2022-10-12T03:38:57.714Z,11.10
2022-10-12T03:41:24.505Z,11.10
2022-10-12T03:43:51.139Z,11.00
2022-10-12T03:46:17.978Z,11.10
2022-10-12T03:48:44.617Z,11.10
2022-10-12T03:51:13.516Z,11.10
2022-10-12T03:53:45.211Z,11.10
2022-10-12T03:56:12.507Z,11.20
2022-10-12T03:58:39.169Z,11.10
2022-10-12T04:01:05.891Z,11.20
2022-10-12T04:03:32.645Z,11.20
2022-10-12T04:05:59.493Z,11.20
2022-10-12T04:08:28.488Z,11.20
2022-10-12T04:10:55.207Z,11.30
2022-10-12T04:13:22.139Z,11.30
2022-10-12T04:15:48.790Z,11.30
2022-10-12T04:18:15.505Z,11.30
2022-10-12T04:20:42.166Z,11.30
2022-10-12T04:23:08.797Z,11.30
2022-10-12T04:25:35.570Z,11.30
2022-10-12T04:28:02.260Z,11.30
2022-10-12T04:30:31.094Z,11.30
2022-10-12T04:32:57.762Z,11.30
2022-10-12T04:35:24.459Z,11.30
2022-10-12T04:37:51.076Z,11.30
2022-10-12T04:40:17.813Z,11.20
2022-10-12T04:42:44.451Z,11.30
2022-10-12T04:45:11.236Z,11.30
2022-10-12T04:47:40.449Z,11.30
2022-10-12T04:50:07.789Z,11.30
2022-10-12T04:52:34.472Z,11.30
2022-10-12T04:55:03.278Z,11.30
2022-10-12T04:57:30.598Z,11.30
2022-10-12T04:59:57.229Z,11.30
2022-10-12T05:02:23.868Z,11.30
2022-10-12T05:04:51.471Z,11.30
2022-10-12T05:07:18.121Z,11.30
2022-10-12T05:09:44.789Z,11.30
2022-10-12T05:12:11.401Z,11.30
2022-10-12T05:14:38.633Z,11.30
2022-10-12T05:17:07.749Z,11.30
2022-10-12T05:19:34.391Z,11.30
2022-10-12T05:22:01.129Z,11.30
2022-10-12T05:24:28.630Z,11.20
2022-10-12T05:26:56.345Z,11.20
2022-10-12T05:29:25.116Z,11.20
2022-10-12T05:31:51.732Z,11.10
2022-10-12T05:34:18.422Z,11.10
2022-10-12T05:36:47.526Z,11.10
2022-10-12T05:39:14.195Z,11.20
2022-10-12T05:41:43.157Z,11.20
2022-10-12T05:44:09.835Z,11.10
2022-10-12T05:46:36.493Z,11.10
2022-10-12T05:49:03.170Z,11.10
2022-10-12T05:51:29.905Z,11.10
2022-10-12T05:53:56.611Z,11.10
2022-10-12T05:56:23.434Z,11.10
2022-10-12T05:58:50.106Z,11.10
2022-10-12T06:01:16.858Z,11.10
2022-10-12T06:03:44.020Z,11.10
2022-10-12T06:06:10.802Z,11.10
2022-10-12T06:08:37.605Z,11.20
2022-10-12T06:11:07.426Z,11.10
2022-10-12T06:13:34.325Z,11.20
2022-10-12T06:16:01.004Z,11.20
2022-10-12T06:18:29.980Z,11.20
2022-10-12T06:21:28.251Z,11.20
2022-10-12T06:23:43.742Z,11.30
2022-10-12T06:26:13.057Z,11.30
2022-10-12T06:28:39.837Z,11.40
2022-10-12T06:31:06.643Z,11.40
2022-10-12T06:33:35.921Z,11.50
2022-10-12T06:36:06.127Z,11.50
2022-10-12T06:38:37.435Z,11.60
2022-10-12T06:41:04.203Z,11.70
2022-10-12T06:43:30.973Z,11.70
2022-10-12T06:46:01.794Z,11.70
2022-10-12T06:48:29.095Z,11.80
2022-10-12T06:50:55.962Z,11.80
2022-10-12T06:53:30.610Z,11.80
2022-10-12T06:55:57.887Z,11.90
2022-10-12T06:58:24.730Z,11.90
2022-10-12T07:00:52.377Z,12.00
2022-10-12T07:03:21.569Z,12.00
2022-10-12T07:05:48.237Z,12.00
2022-10-12T07:08:14.968Z,12.10
2022-10-12T07:10:41.595Z,12.10
2022-10-12T07:13:08.223Z,12.10
2022-10-12T07:15:34.927Z,12.10
2022-10-12T07:18:01.579Z,12.20
2022-10-12T07:20:28.241Z,12.20
2022-10-12T07:22:54.883Z,12.20
2022-10-12T07:25:22.300Z,12.20
2022-10-12T07:27:51.892Z,12.20
2022-10-12T07:30:18.792Z,12.20
2022-10-12T07:32:47.000Z,12.20
2022-10-12T07:35:15.884Z,12.20
2022-10-12T07:37:42.672Z,12.30
2022-10-12T07:40:12.002Z,12.30
2022-10-12T07:42:59.017Z,12.30
2022-10-12T07:45:28.423Z,12.40
2022-10-12T07:47:56.045Z,12.50
2022-10-12T07:50:23.317Z,12.50
2022-10-12T07:52:49.982Z,12.60
2022-10-12T07:55:19.020Z,12.60
2022-10-12T07:57:45.704Z,12.60
2022-10-12T08:00:15.273Z,12.70
2022-10-12T08:02:41.953Z,12.70
2022-10-12T08:05:09.078Z,12.70
2022-10-12T08:07:35.773Z,12.60
2022-10-12T08:10:02.568Z,12.70
2022-10-12T08:12:29.357Z,12.70
2022-10-12T08:14:58.569Z,12.70
2022-10-12T08:17:25.269Z,12.80
2022-10-12T08:19:54.060Z,12.80
2022-10-12T08:22:20.858Z,12.80
2022-10-12T08:24:49.946Z,12.80
2022-10-12T08:27:16.681Z,12.90
2022-10-12T08:29:43.350Z,13.00
2022-10-12T08:32:12.532Z,13.00
2022-10-12T08:34:39.256Z,13.10
2022-10-12T08:37:06.270Z,13.10
2022-10-12T08:39:35.483Z,13.10
2022-10-12T08:42:20.200Z,13.10
2022-10-12T08:45:13.362Z,13.30
2022-10-12T08:47:47.677Z,13.50
2022-10-12T08:50:26.804Z,13.70
2022-10-12T08:53:02.231Z,13.80
2022-10-12T08:55:34.658Z,13.80
2022-10-12T08:58:02.218Z,13.90
2022-10-12T09:00:31.205Z,14.10
2022-10-12T09:03:14.642Z,14.20
2022-10-12T09:05:47.977Z,14.30
2022-10-12T09:08:46.934Z,14.40
2022-10-12T09:11:31.511Z,14.50
2022-10-12T09:14:08.292Z,14.60
2022-10-12T09:16:42.839Z,14.60
2022-10-12T09:19:21.653Z,14.70
2022-10-12T09:21:49.859Z,14.90
2022-10-12T09:24:20.438Z,15.00
2022-10-12T09:26:50.711Z,15.00
2022-10-12T09:29:31.444Z,15.10
2022-10-12T09:32:32.528Z,15.10
2022-10-12T09:35:04.211Z,15.30
2022-10-12T09:37:35.490Z,15.50
2022-10-12T09:40:02.710Z,15.70
2022-10-12T09:42:29.503Z,15.90
2022-10-12T09:45:04.943Z,16.00
2022-10-12T09:47:33.524Z,16.30
2022-10-12T09:50:04.602Z,16.60
2022-10-12T09:52:37.228Z,16.90
2022-10-12T09:55:19.422Z,17.30
2022-10-12T09:57:58.100Z,17.60
2022-10-12T10:00:26.986Z,17.90
2022-10-12T10:02:54.989Z,18.00
2022-10-12T10:05:26.526Z,18.00
2022-10-12T10:08:19.475Z,18.70
2022-10-12T10:10:58.299Z,19.50
2022-10-12T10:13:33.701Z,20.00
2022-10-12T10:16:08.739Z,21.00
2022-10-12T10:18:49.024Z,21.50
2022-10-12T10:21:34.869Z,22.30
2022-10-12T10:24:24.784Z,23.00
2022-10-12T10:26:59.431Z,23.20
2022-10-12T10:29:32.007Z,22.80
2022-10-12T10:32:26.427Z,23.40
2022-10-12T10:35:20.769Z,23.90
2022-10-12T10:37:55.127Z,24.30
2022-10-12T10:40:33.194Z,24.00
2022-10-12T10:43:25.227Z,24.10
2022-10-12T10:45:55.783Z,24.40
2022-10-12T10:48:28.094Z,24.60
2022-10-12T10:51:06.961Z,24.70
2022-10-12T10:53:50.547Z,25.40
2022-10-12T10:56:23.339Z,25.90
2022-10-12T10:58:59.855Z,26.20
2022-10-12T11:01:59.604Z,26.60
2022-10-12T11:04:34.932Z,26.90
2022-10-12T11:07:21.348Z,26.90
2022-10-12T11:09:54.056Z,25.90
2022-10-12T11:12:42.212Z,25.80
2022-10-12T11:15:18.190Z,25.60
2022-10-12T11:17:54.755Z,25.40
2022-10-12T11:20:41.008Z,25.60
2022-10-12T11:23:34.920Z,26.30
2022-10-12T11:26:06.699Z,26.00
2022-10-12T11:28:39.218Z,26.50
2022-10-12T11:31:12.437Z,27.00
2022-10-12T11:33:43.856Z,26.80
2022-10-12T11:36:14.968Z,26.80
2022-10-12T11:38:51.257Z,27.30
2022-10-12T11:41:37.017Z,27.40
2022-10-12T11:44:18.230Z,27.00
2022-10-12T11:46:56.248Z,27.40
2022-10-12T11:49:42.470Z,27.80
2022-10-12T11:52:11.440Z,28.40
2022-10-12T11:55:00.281Z,28.60
2022-10-12T11:57:31.271Z,28.30
2022-10-12T12:00:05.790Z,28.60
2022-10-12T12:02:42.626Z,29.00
2022-10-12T12:05:17.142Z,28.80
2022-10-12T12:07:51.330Z,28.50
2022-10-12T12:10:37.076Z,28.60
2022-10-12T12:13:11.147Z,29.00
2022-10-12T12:15:43.040Z,29.30
2022-10-12T12:18:27.991Z,29.40
2022-10-12T12:21:04.122Z,29.80
2022-10-12T12:23:53.982Z,29.90
2022-10-12T12:26:27.893Z,29.70
2022-10-12T12:29:24.564Z,28.70
2022-10-12T12:31:58.995Z,29.10
2022-10-12T12:34:26.762Z,29.70
2022-10-12T12:36:53.719Z,30.20
2022-10-12T12:39:30.595Z,30.70
2022-10-12T12:42:02.342Z,31.00
2022-10-12T12:44:37.982Z,31.20
2022-10-12T12:50:01.065Z,31.20
2022-10-12T12:52:38.003Z,31.20
2022-10-12T12:55:35.241Z,31.20
2022-10-12T12:58:04.020Z,30.50
2022-10-12T13:00:48.342Z,30.30
2022-10-12T13:03:52.994Z,29.80
2022-10-12T13:06:44.281Z,29.80
2022-10-12T13:09:35.092Z,30.20
2022-10-12T13:12:26.371Z,30.30
2022-10-12T13:15:05.137Z,30.90
2022-10-12T13:17:53.154Z,29.90
2022-10-12T13:20:26.753Z,30.30
2022-10-12T13:22:57.814Z,30.60
2022-10-12T13:25:38.136Z,30.30
2022-10-12T13:28:10.332Z,30.40
2022-10-12T13:30:50.119Z,30.00
2022-10-12T13:33:57.858Z,30.10
2022-10-12T13:36:31.800Z,30.30
2022-10-12T13:39:14.077Z,30.90
2022-10-12T13:41:41.369Z,30.90
2022-10-12T13:44:21.442Z,30.40
2022-10-12T13:46:56.303Z,30.50
2022-10-12T13:49:27.285Z,31.10
2022-10-12T13:52:15.130Z,31.50
2022-10-12T13:54:43.714Z,31.90
2022-10-12T13:57:19.518Z,31.70
2022-10-12T13:59:49.949Z,31.60
2022-10-12T14:02:25.902Z,31.60
2022-10-12T14:04:57.097Z,31.60
2022-10-12T14:07:41.375Z,31.70
2022-10-12T14:10:16.379Z,31.90
2022-10-12T14:12:45.870Z,31.60
2022-10-12T14:15:16.945Z,31.20
2022-10-12T14:17:50.796Z,30.70
2022-10-12T14:20:33.115Z,30.40
2022-10-12T14:23:01.391Z,29.90
2022-10-12T14:25:30.697Z,29.80
2022-10-12T14:28:07.057Z,29.50
2022-10-12T14:30:41.360Z,29.40
2022-10-12T14:33:17.331Z,29.20
2022-10-12T14:35:49.678Z,28.80
2022-10-12T14:38:46.096Z,28.50
2022-10-12T14:41:36.035Z,27.70
2022-10-12T14:44:14.371Z,26.80
2022-10-12T14:47:06.023Z,26.50
2022-10-12T14:49:46.530Z,25.90
2022-10-12T14:52:30.794Z,25.00
2022-10-12T14:54:59.576Z,24.80
2022-10-12T14:57:31.239Z,24.90
2022-10-12T14:59:58.964Z,24.90
2022-10-12T15:02:33.784Z,24.40
2022-10-12T15:05:01.084Z,24.30
2022-10-12T15:07:32.671Z,24.20
2022-10-12T15:10:00.141Z,23.90
2022-10-12T15:12:30.511Z,23.90
2022-10-12T15:15:00.900Z,23.90
2022-10-12T15:17:27.824Z,23.70
2022-10-12T15:19:56.927Z,23.40
2022-10-12T15:22:26.147Z,23.20
2022-10-12T15:24:54.218Z,23.00
2022-10-12T15:27:23.687Z,23.00
2022-10-12T15:29:50.402Z,23.00
2022-10-12T15:32:18.340Z,22.90
2022-10-12T15:34:45.683Z,23.00
2022-10-12T15:37:12.389Z,23.20
2022-10-12T15:39:39.057Z,23.40
2022-10-12T15:42:05.813Z,23.70
2022-10-12T15:44:40.772Z,23.90
2022-10-12T15:47:09.962Z,23.90
2022-10-12T15:49:36.754Z,23.70
2022-10-12T15:52:03.515Z,23.40
2022-10-12T15:54:32.212Z,23.00
2022-10-12T15:56:59.322Z,22.70
2022-10-12T15:59:26.297Z,22.40
2022-10-12T16:02:00.168Z,22.20
2022-10-12T16:04:26.812Z,22.00
2022-10-12T16:06:53.540Z,22.00
2022-10-12T16:09:20.162Z,22.10
2022-10-12T16:11:46.979Z,22.20
2022-10-12T16:14:14.670Z,22.10
2022-10-12T16:16:41.290Z,22.00
2022-10-12T16:19:08.522Z,21.70
2022-10-12T16:21:35.226Z,21.50
2022-10-12T16:24:01.937Z,21.30
2022-10-12T16:26:33.088Z,21.00
2022-10-12T16:29:02.198Z,20.80
2022-10-12T16:31:29.775Z,20.50
2022-10-12T16:33:57.310Z,20.30
2022-10-12T16:36:24.053Z,20.10
2022-10-12T16:38:53.203Z,19.90
2022-10-12T16:41:20.204Z,19.80
2022-10-12T16:43:47.094Z,19.60
2022-10-12T16:46:18.796Z,19.50
2022-10-12T16:48:45.651Z,19.40
2022-10-12T16:51:15.571Z,19.20
2022-10-12T16:53:42.699Z,19.10
2022-10-12T16:56:09.886Z,19.00
2022-10-12T16:58:36.642Z,18.90
2022-10-12T17:01:11.672Z,18.70
2022-10-12T17:03:41.625Z,18.60
2022-10-12T17:06:08.952Z,18.50
2022-10-12T17:08:40.566Z,18.40
2022-10-12T17:11:09.834Z,18.30
2022-10-12T17:13:38.342Z,18.20
2022-10-12T17:16:25.712Z,18.10
2022-10-12T17:18:58.195Z,17.90
2022-10-12T17:21:26.259Z,17.80
2022-10-12T17:23:57.027Z,17.70
2022-10-12T17:26:24.152Z,17.60
2022-10-12T17:28:51.412Z,17.50
2022-10-12T17:31:18.508Z,17.40
2022-10-12T17:33:45.565Z,17.30
2022-10-12T17:36:15.054Z,17.20
2022-10-12T17:38:42.084Z,17.10
2022-10-12T17:41:09.323Z,17.10
2022-10-12T17:43:36.292Z,17.00
2022-10-12T17:46:05.539Z,16.80
2022-10-12T17:48:32.534Z,16.70
2022-10-12T17:51:09.832Z,16.60
2022-10-12T17:53:36.995Z,16.50
2022-10-12T17:56:10.517Z,16.40
2022-10-12T17:58:40.082Z,16.30
2022-10-12T18:01:12.111Z,16.30
2022-10-12T18:03:41.540Z,16.10
2022-10-12T18:06:17.397Z,16.10
2022-10-12T18:08:44.628Z,16.00
2022-10-12T18:11:14.796Z,15.90
2022-10-12T18:13:50.887Z,15.60
2022-10-12T18:16:20.396Z,15.60
2022-10-12T18:18:50.781Z,15.50
2022-10-12T18:21:19.128Z,15.50
2022-10-12T18:23:46.133Z,15.40
2022-10-12T18:26:19.802Z,15.40
2022-10-12T18:28:48.456Z,15.30
2022-10-12T18:31:22.816Z,15.20
2022-10-12T18:33:49.982Z,15.10
2022-10-12T18:36:17.980Z,15.00
2022-10-12T18:38:45.134Z,14.90
2022-10-12T18:41:15.827Z,14.80
2022-10-12T18:43:42.704Z,14.70
2022-10-12T18:46:14.738Z,14.60
2022-10-12T18:48:41.851Z,14.50
2022-10-12T18:51:30.006Z,14.40
2022-10-12T18:53:58.671Z,14.30
2022-10-12T18:56:26.305Z,14.20
2022-10-12T18:58:56.199Z,14.10
2022-10-12T19:01:24.821Z,14.00
2022-10-12T19:03:53.505Z,14.00
2022-10-12T19:06:23.797Z,14.00
2022-10-12T19:08:51.208Z,13.90
2022-10-12T19:11:20.025Z,13.80
2022-10-12T19:14:01.361Z,13.80
2022-10-12T19:16:29.334Z,13.70
2022-10-12T19:18:58.199Z,13.70
2022-10-12T19:21:25.651Z,13.60
2022-10-12T19:23:52.875Z,13.50
2022-10-12T19:26:25.129Z,13.40
2022-10-12T19:28:54.547Z,13.40
2022-10-12T19:31:29.878Z,13.30
2022-10-12T19:34:07.233Z,13.20
2022-10-12T19:36:34.956Z,13.20
2022-10-12T19:39:05.122Z,13.20
2022-10-12T19:41:31.838Z,13.10
2022-10-12T19:43:59.477Z,13.10
2022-10-12T19:46:26.781Z,13.00
2022-10-12T19:48:57.145Z,13.00
2022-10-12T19:51:24.641Z,13.00
2022-10-12T19:53:56.321Z,13.00
2022-10-12T19:56:23.611Z,13.00
2022-10-12T19:58:55.618Z,13.00
2022-10-12T20:01:34.829Z,12.90
2022-10-12T20:04:08.327Z,12.90
2022-10-12T20:06:37.680Z,12.80
2022-10-12T20:09:07.941Z,12.80
2022-10-12T20:11:35.095Z,12.80
2022-10-12T20:14:02.775Z,12.70
2022-10-12T20:16:34.004Z,12.70
2022-10-12T20:19:02.481Z,12.70
2022-10-12T20:21:29.251Z,12.70
2022-10-12T20:23:56.067Z,12.70
2022-10-12T20:26:26.830Z,12.60
2022-10-12T20:28:54.568Z,12.60
2022-10-12T20:31:24.852Z,12.50
2022-10-12T20:33:53.012Z,12.50
2022-10-12T20:36:28.398Z,12.60
2022-10-12T20:38:56.502Z,12.50
2022-10-12T20:41:24.457Z,12.50
2022-10-12T20:43:55.508Z,12.50
2022-10-12T20:46:22.254Z,12.40
2022-10-12T20:48:48.912Z,12.40
2022-10-12T20:51:28.759Z,12.40
2022-10-12T20:54:00.414Z,12.30
2022-10-12T20:56:31.623Z,12.30
2022-10-12T20:58:58.853Z,12.30
2022-10-12T21:01:29.227Z,12.30
2022-10-12T21:03:55.995Z,12.20
2022-10-12T21:06:23.534Z,12.20
2022-10-12T21:08:55.006Z,12.10
2022-10-12T21:11:22.230Z,12.10
2022-10-12T21:13:49.534Z,12.10
2022-10-12T21:16:16.833Z,12.10
2022-10-12T21:18:43.611Z,12.10
2022-10-12T21:21:12.160Z,12.00
2022-10-12T21:23:42.844Z,12.00
2022-10-12T21:26:20.935Z,12.00
2022-10-12T21:28:50.810Z,12.00
2022-10-12T21:31:18.813Z,12.00
2022-10-12T21:33:45.581Z,12.00
2022-10-12T21:36:19.428Z,12.00
2022-10-12T21:38:47.063Z,12.00
2022-10-12T21:41:15.297Z,12.00
2022-10-12T21:43:44.546Z,12.00
2022-10-12T21:46:26.380Z,11.90
2022-10-12T21:48:53.300Z,11.90
2022-10-12T21:51:21.417Z,11.90
2022-10-12T21:53:48.900Z,11.90
2022-10-12T21:56:18.636Z,11.80
2022-10-12T21:58:47.557Z,11.80
2022-10-12T22:01:17.051Z,11.70
2022-10-12T22:03:48.215Z,11.70
2022-10-12T22:06:17.732Z,11.70
2022-10-12T22:08:49.708Z,11.60
2022-10-12T22:11:16.804Z,11.70
2022-10-12T22:13:43.628Z,11.60
2022-10-12T22:16:15.286Z,11.60
2022-10-12T22:18:42.734Z,11.60
2022-10-12T22:21:15.105Z,11.60
2022-10-12T22:23:42.509Z,11.60
2022-10-12T22:26:15.326Z,11.60
2022-10-12T22:28:42.083Z,11.60
2022-10-12T22:31:10.737Z,11.60
2022-10-12T22:33:40.698Z,11.60
2022-10-12T22:36:09.812Z,11.60
2022-10-12T22:38:37.879Z,11.60
2022-10-12T22:41:12.238Z,11.60
2022-10-12T22:43:42.006Z,11.60
2022-10-12T22:46:08.732Z,11.50
2022-10-12T22:48:36.226Z,11.50
2022-10-12T22:51:04.125Z,11.50
2022-10-12T22:53:33.628Z,11.50
2022-10-12T22:56:08.820Z,11.40
2022-10-12T22:58:37.760Z,11.40
2022-10-12T23:01:11.157Z,11.40
2022-10-12T23:03:38.466Z,11.40
2022-10-12T23:06:05.458Z,11.30
2022-10-12T23:08:32.438Z,11.30
2022-10-12T23:11:10.343Z,11.30
2022-10-12T23:13:40.172Z,11.30
2022-10-12T23:16:11.880Z,11.30
2022-10-12T23:18:39.161Z,11.30
2022-10-12T23:21:11.847Z,11.30
2022-10-12T23:23:39.937Z,11.30
2022-10-12T23:26:15.180Z,11.30
2022-10-12T23:28:42.517Z,11.30
2022-10-12T23:31:16.673Z,11.30
2022-10-12T23:33:43.504Z,11.30
2022-10-12T23:36:15.467Z,11.30
2022-10-12T23:38:44.932Z,11.30
2022-10-12T23:41:12.887Z,11.40
2022-10-12T23:43:39.878Z,11.30
2022-10-12T23:46:09.802Z,11.30
2022-10-12T23:48:36.443Z,11.30
2022-10-12T23:51:05.425Z,11.40
2022-10-12T23:53:34.630Z,11.30
2022-10-12T23:56:06.208Z,11.30
2022-10-12T23:58:35.415Z,11.30
